View Sortable Currents For Network
ASOSAWOSCoCoRaHSCOOPDCPISUSM
SchoolNetOtherSCANMy FavoritesBy StateRWIS
RWIS SurfaceRWIS TrafficRWIS SoilBy NWS WFO

Current AWOS Conditions

** This page will automatically refresh every five minutes.
Sorted by: (Visibility)     Click on a column to sort it.

Add Station: Ob Time   Wind [knots]   Rainfall
Temp (Hi / Lo) DewP Feels RH% Dir Speed Peak Gust
@ Time
Alti Vsby Hour Today
FAIRFIELD (FFL)06:00 AM 18(19/18) 9 5 67 230 1021 @ 12:10 AM 30.2 10 0
CLARINDA (ICL)06:00 AM 14(14/10) 10 1 84 180 99 @ 05:50 AM 30.2 10 0
CHARITON (CNC)06:00 AM 16(19/16) 10 2 77 210 1119 @ 12:00 AM 30.17 10 0
LE MARS (LRJ)06:00 AM 18(21/14) 14 9 84 180 69 @ 12:00 AM 30.02 10 0
INDEPENDENCE (IIB)06:00 AM 13(19/9) 9 3 84 210 610 @ 01:10 AM 30.09 10 0
Forest City (FXY)06:00 AM 19(19/18) 14 11 81 230 510 @ 01:05 AM 30.01 10 0
Knoxville (OXV)06:00 AM 19(21/19) 9 7 64 220 10G1821 @ 12:30 AM 30.14 10 0
CLINTON (CWI)05:56 AM 16(17/15) 11 3 80 250 1018 @ 02:56 AM 30.17 10 0
MOUNT PLEASANT (MPZ)05:59 AM 18(18/16) 10 4 70 220 1222 @ 12:49 AM 30.22 10 0
BOONE MUNI (BNW)06:00 AM 21(21/19) 12 8 68 230 1324 @ 12:00 AM 30.07 10 0
Cherokee (CKP)05:55 AM 18(20/14) 15 9 88 220 610 @ 05:15 AM 30.03 10 0
MONTICELLO MUNI (MXO)06:00 AM 16(19/16) 10 7 77 220 517 @ 01:50 AM 30.12 10 0
Orange City (ORC)06:00 AM 19(21/18) 18 11 96 200 59 @ 12:00 AM 29.99 10 0
ALGONA (AXA)06:00 AM 18(21/18) 18 4 100 210 1322 @ 05:00 AM 30 10 0
FORT MADISON (FSW)06:00 AM 16(18/16) 10 4 77 210 818 @ 01:15 AM 30.25 10 0
ANKENY (IKV)06:00 AM 21(23/21) 10 10 62 220 919 @ 12:00 AM 30.14 10 0
MUSCATINE (MUT)06:00 AM 19(19/18) 10 7 67 220 1015 @ 05:30 AM 30.21 10 0
OELWEIN (OLZ)06:00 AM 14(18/12) 14 0 100 200 1013 @ 12:00 AM 30.07 10 0
CARROLL (CIN)06:00 AM 19(21/19) 12 3 74 230 1727 @ 01:40 AM 30.06 10 0
PELLA (PEA)06:00 AM 20(21/20) 11 8 68 210 10G1418 @ 12:00 AM 30.16 10 0
CHARLES CITY (CCY)06:00 AM 18(19/16) 12 9 77 220 619 @ 12:40 AM 30.04 10 0
CRESTON (CSQ)06:00 AM 16(19/16) 9 3 73 220 1017 @ 12:30 AM 30.16 10 0
Webster City (EBS)05:55 AM 18(19/18) 12 3 77 210 1515 @ 12:35 AM 30.02 10 0
Oskaloosa (OOA)05:55 AM 18(19/17) 11 6 74 230 922 @ 12:15 AM 30.18 10 0
HARLAN (HNR)06:00 AM 12(18/12) 9 0 87 190 712 @ 12:30 AM 30.16 10 0
Perry (PRO)05:55 AM 17(21/17) 9 6 70 240 816 @ 03:55 AM 30.12 10 0
KEOKUK MUNI (EOK)06:00 AM 18(18/16) 10 5 70 220 1119 @ 12:00 AM 30.25 10 0
ATLANTIC (AIO)06:05 AM 14(18/10) 9 2 80 210 811 @ 01:45 AM 30.15 10 0
DECORAH (DEH)06:05 AM 18(19/18) 12 7 77 230 818 @ 12:25 AM 30.01 10 0
Grinnell (GGI)06:05 AM 18(18/16) 11 4 74 220 13G1718 @ 12:45 AM 30.13 10 0
SHENANDOAH MUNI (SDA)06:00 AM 19(19/14) 10 7 67 200 1012 @ 05:30 AM 30.18 10 0
SHELDON (SHL)06:00 AM 18(21/18) 14 13 84 190 316 @ 12:00 AM 30 10 0
CLARION (CAV)06:00 AM 16(18/14) 16 4 100 210 816 @ 01:20 AM 30.04 10 0
AUDUBON (ADU)06:00 AM 18(19/18) 10 10 70 190 518 @ 01:10 AM 30.12 10 0
COUNCIL BLUFFS (CBF)06:00 AM 18(19/18) 10 5 70 210 1115 @ 04:40 AM 30.13 10 0
Centerville (TVK)05:55 AM 14(16/14) 10 1 84 220 916 @ 01:15 AM 30.24 10 0
NEWTON MUNI (TNU)06:00 AM 18(18/16) 10 5 70 220 1113 @ 12:15 AM 30.14 10 0
Osceola (I75)05:55 AM 19(19/18) 11 5 71 210 1318 @ 12:25 AM 30.16 10 0
RED OAK (RDK)06:00 AM 14(18/10) 9 3 80 200 78 @ 05:15 AM 30.17 10 0
WASHINGTON (AWG)06:00 AM 18(19/18) 12 5 77 230 1121 @ 12:15 AM 30.2 10 0
FORT DODGE (FOD)05:56 AM 17(18/16) 12 4 80 200 1116 @ 04:10 AM 30.03 10 0 0
DENISON (DNS)06:00 AM 18(19/18) 12 8 77 210 718 @ 01:15 AM 30.1 10 0
Storm Lake (SLB)06:00 AM 19(19/18) 14 4 81 220 1620 @ 12:40 AM 29.98 10 0
Iowa Falls (IFA)06:15 AM 17(21/17) 12 6 80 200 820 @ 01:35 AM 30.06 7 0
VINTON (VTI)06:15 AM 16(21/16) 9 7 73 180 515 @ 12:05 AM 30.12 0
Plot (Plot / Plot) Plot Plot Plot Plot Plot Plot Plot Plot Plot